sensor_id;sensor_type;location;lat;lon;timestamp;temperature;humidity
37488;DHT22;23342;52.620;13.300;2022-07-03T00:01:21;16.90;99.90
37488;DHT22;23342;52.620;13.300;2022-07-03T00:03:46;16.90;99.90
37488;DHT22;23342;52.620;13.300;2022-07-03T00:06:12;16.80;99.90
37488;DHT22;23342;52.620;13.300;2022-07-03T00:08:38;16.80;99.90
37488;DHT22;23342;52.620;13.300;2022-07-03T00:11:05;16.80;99.90
37488;DHT22;23342;52.620;13.300;2022-07-03T00:13:31;16.80;99.90
37488;DHT22;23342;52.620;13.300;2022-07-03T00:15:56;16.70;99.90
37488;DHT22;23342;52.620;13.300;2022-07-03T00:18:22;16.70;99.90
37488;DHT22;23342;52.620;13.300;2022-07-03T00:20:49;16.70;99.90
37488;DHT22;23342;52.620;13.300;2022-07-03T00:23:21;16.70;99.90
37488;DHT22;23342;52.620;13.300;2022-07-03T00:25:49;16.70;99.90
37488;DHT22;23342;52.620;13.300;2022-07-03T00:28:14;16.70;99.90
37488;DHT22;23342;52.620;13.300;2022-07-03T00:30:44;16.60;99.90
37488;DHT22;23342;52.620;13.300;2022-07-03T00:33:11;16.60;99.90
37488;DHT22;23342;52.620;13.300;2022-07-03T00:35:39;16.60;99.90
37488;DHT22;23342;52.620;13.300;2022-07-03T00:38:05;16.50;99.90
37488;DHT22;23342;52.620;13.300;2022-07-03T00:40:30;16.50;99.90
37488;DHT22;23342;52.620;13.300;2022-07-03T00:42:56;16.50;99.90
37488;DHT22;23342;52.620;13.300;2022-07-03T00:45:26;16.50;99.90
37488;DHT22;23342;52.620;13.300;2022-07-03T00:47:52;16.40;99.90
37488;DHT22;23342;52.620;13.300;2022-07-03T00:50:25;16.50;99.90
37488;DHT22;23342;52.620;13.300;2022-07-03T00:52:52;16.50;99.90
37488;DHT22;23342;52.620;13.300;2022-07-03T00:55:22;16.40;99.90
37488;DHT22;23342;52.620;13.300;2022-07-03T00:57:53;16.40;99.90
37488;DHT22;23342;52.620;13.300;2022-07-03T01:00:20;16.40;99.90
37488;DHT22;23342;52.620;13.300;2022-07-03T01:03:05;16.30;99.90
37488;DHT22;23342;52.620;13.300;2022-07-03T01:05:39;16.30;99.90
37488;DHT22;23342;52.620;13.300;2022-07-03T01:08:18;16.30;99.90
37488;DHT22;23342;52.620;13.300;2022-07-03T01:10:54;16.30;99.90
37488;DHT22;23342;52.620;13.300;2022-07-03T01:17:02;16.30;99.90
37488;DHT22;23342;52.620;13.300;2022-07-03T01:19:43;16.30;99.90
37488;DHT22;23342;52.620;13.300;2022-07-03T01:22:35;16.20;99.90
37488;DHT22;23342;52.620;13.300;2022-07-03T01:25:23;16.20;99.90
37488;DHT22;23342;52.620;13.300;2022-07-03T01:28:16;16.20;99.90
37488;DHT22;23342;52.620;13.300;2022-07-03T01:30:53;16.10;99.90
37488;DHT22;23342;52.620;13.300;2022-07-03T01:33:22;16.10;99.90
37488;DHT22;23342;52.620;13.300;2022-07-03T01:36:48;16.00;99.90
37488;DHT22;23342;52.620;13.300;2022-07-03T01:39:16;16.00;99.90
37488;DHT22;23342;52.620;13.300;2022-07-03T01:41:44;16.00;99.90
37488;DHT22;23342;52.620;13.300;2022-07-03T01:44:14;16.00;99.90
37488;DHT22;23342;52.620;13.300;2022-07-03T01:46:40;16.00;99.90
37488;DHT22;23342;52.620;13.300;2022-07-03T01:49:09;16.00;99.90
37488;DHT22;23342;52.620;13.300;2022-07-03T01:51:38;15.90;99.90
37488;DHT22;23342;52.620;13.300;2022-07-03T01:54:05;15.90;99.90
37488;DHT22;23342;52.620;13.300;2022-07-03T01:56:33;15.90;99.90
37488;DHT22;23342;52.620;13.300;2022-07-03T01:59:02;15.90;99.90
37488;DHT22;23342;52.620;13.300;2022-07-03T02:01:49;15.90;99.90
37488;DHT22;23342;52.620;13.300;2022-07-03T02:04:27;15.90;99.90
37488;DHT22;23342;52.620;13.300;2022-07-03T02:07:02;15.90;99.90
37488;DHT22;23342;52.620;13.300;2022-07-03T02:15:34;15.80;99.90
37488;DHT22;23342;52.620;13.300;2022-07-03T02:18:32;15.80;99.90
37488;DHT22;23342;52.620;13.300;2022-07-03T02:24:12;15.70;99.90
37488;DHT22;23342;52.620;13.300;2022-07-03T02:26:41;15.60;99.90
37488;DHT22;23342;52.620;13.300;2022-07-03T02:29:12;15.70;99.90
37488;DHT22;23342;52.620;13.300;2022-07-03T02:31:45;15.70;99.90
37488;DHT22;23342;52.620;13.300;2022-07-03T02:34:17;15.60;99.90
37488;DHT22;23342;52.620;13.300;2022-07-03T02:36:47;15.60;99.90
37488;DHT22;23342;52.620;13.300;2022-07-03T02:39:35;15.60;99.90
37488;DHT22;23342;52.620;13.300;2022-07-03T02:42:04;15.60;99.90
37488;DHT22;23342;52.620;13.300;2022-07-03T02:44:46;15.60;99.90
37488;DHT22;23342;52.620;13.300;2022-07-03T02:47:35;15.50;99.90
37488;DHT22;23342;52.620;13.300;2022-07-03T02:50:11;15.50;99.90
37488;DHT22;23342;52.620;13.300;2022-07-03T02:52:52;15.50;99.90
37488;DHT22;23342;52.620;13.300;2022-07-03T02:57:12;15.50;99.90
37488;DHT22;23342;52.620;13.300;2022-07-03T02:59:54;15.50;99.90
37488;DHT22;23342;52.620;13.300;2022-07-03T03:03:05;15.50;99.90
37488;DHT22;23342;52.620;13.300;2022-07-03T03:05:47;15.50;99.90
37488;DHT22;23342;52.620;13.300;2022-07-03T03:08:37;15.40;99.90
37488;DHT22;23342;52.620;13.300;2022-07-03T03:11:32;15.50;99.90
37488;DHT22;23342;52.620;13.300;2022-07-03T03:14:00;15.40;99.90
37488;DHT22;23342;52.620;13.300;2022-07-03T03:16:28;15.40;99.90
37488;DHT22;23342;52.620;13.300;2022-07-03T03:18:53;15.40;99.90
37488;DHT22;23342;52.620;13.300;2022-07-03T03:21:20;15.40;99.90
37488;DHT22;23342;52.620;13.300;2022-07-03T03:23:50;15.40;99.90
37488;DHT22;23342;52.620;13.300;2022-07-03T03:26:20;15.40;99.90
37488;DHT22;23342;52.620;13.300;2022-07-03T03:28:47;15.50;99.90
37488;DHT22;23342;52.620;13.300;2022-07-03T03:31:13;15.50;99.90
37488;DHT22;23342;52.620;13.300;2022-07-03T03:33:41;15.50;99.90
37488;DHT22;23342;52.620;13.300;2022-07-03T03:36:12;15.50;99.90
37488;DHT22;23342;52.620;13.300;2022-07-03T03:38:39;15.50;99.90
37488;DHT22;23342;52.620;13.300;2022-07-03T03:41:06;15.50;99.90
37488;DHT22;23342;52.620;13.300;2022-07-03T03:43:33;15.50;99.90
37488;DHT22;23342;52.620;13.300;2022-07-03T03:45:59;15.60;99.90
37488;DHT22;23342;52.620;13.300;2022-07-03T03:48:29;15.60;99.90
37488;DHT22;23342;52.620;13.300;2022-07-03T03:50:59;15.70;99.90
37488;DHT22;23342;52.620;13.300;2022-07-03T03:53:25;15.70;99.90
37488;DHT22;23342;52.620;13.300;2022-07-03T03:56:05;15.70;99.90
37488;DHT22;23342;52.620;13.300;2022-07-03T03:58:34;15.80;99.90
37488;DHT22;23342;52.620;13.300;2022-07-03T04:01:01;15.80;99.90
37488;DHT22;23342;52.620;13.300;2022-07-03T04:03:28;15.80;99.90
37488;DHT22;23342;52.620;13.300;2022-07-03T04:05:54;15.90;99.90
37488;DHT22;23342;52.620;13.300;2022-07-03T04:08:21;16.00;99.90
37488;DHT22;23342;52.620;13.300;2022-07-03T04:10:48;16.00;99.90
37488;DHT22;23342;52.620;13.300;2022-07-03T04:13:15;16.10;99.90
37488;DHT22;23342;52.620;13.300;2022-07-03T04:15:40;16.10;99.90
37488;DHT22;23342;52.620;13.300;2022-07-03T04:18:06;16.10;99.90
37488;DHT22;23342;52.620;13.300;2022-07-03T04:20:32;16.20;99.90
37488;DHT22;23342;52.620;13.300;2022-07-03T04:22:58;16.20;99.90
37488;DHT22;23342;52.620;13.300;2022-07-03T04:25:24;16.30;99.90
37488;DHT22;23342;52.620;13.300;2022-07-03T04:27:49;16.30;99.90
37488;DHT22;23342;52.620;13.300;2022-07-03T04:30:15;16.40;99.90
37488;DHT22;23342;52.620;13.300;2022-07-03T04:32:41;16.40;99.90
37488;DHT22;23342;52.620;13.300;2022-07-03T04:35:07;16.50;99.90
37488;DHT22;23342;52.620;13.300;2022-07-03T04:37:32;16.50;99.90
37488;DHT22;23342;52.620;13.300;2022-07-03T04:39:58;16.70;99.90
37488;DHT22;23342;52.620;13.300;2022-07-03T04:42:24;16.70;99.90
37488;DHT22;23342;52.620;13.300;2022-07-03T04:44:49;16.80;99.90
37488;DHT22;23342;52.620;13.300;2022-07-03T04:47:15;16.90;99.90
37488;DHT22;23342;52.620;13.300;2022-07-03T04:49:41;17.00;99.90
37488;DHT22;23342;52.620;13.300;2022-07-03T04:52:08;17.10;99.90
37488;DHT22;23342;52.620;13.300;2022-07-03T04:54:34;17.20;99.90
37488;DHT22;23342;52.620;13.300;2022-07-03T04:56:59;17.20;99.90
37488;DHT22;23342;52.620;13.300;2022-07-03T04:59:25;17.30;99.90
37488;DHT22;23342;52.620;13.300;2022-07-03T05:01:50;17.40;99.90
37488;DHT22;23342;52.620;13.300;2022-07-03T05:04:16;17.50;99.90
37488;DHT22;23342;52.620;13.300;2022-07-03T05:06:42;17.60;99.90
37488;DHT22;23342;52.620;13.300;2022-07-03T05:09:08;17.60;99.90
37488;DHT22;23342;52.620;13.300;2022-07-03T05:11:33;17.70;99.90
37488;DHT22;23342;52.620;13.300;2022-07-03T05:13:59;17.80;99.90
37488;DHT22;23342;52.620;13.300;2022-07-03T05:16:24;17.90;99.90
37488;DHT22;23342;52.620;13.300;2022-07-03T05:18:50;18.00;99.90
37488;DHT22;23342;52.620;13.300;2022-07-03T05:21:15;18.10;99.90
37488;DHT22;23342;52.620;13.300;2022-07-03T05:23:41;18.20;99.90
37488;DHT22;23342;52.620;13.300;2022-07-03T05:26:07;18.30;99.90
37488;DHT22;23342;52.620;13.300;2022-07-03T05:28:32;18.40;99.90
37488;DHT22;23342;52.620;13.300;2022-07-03T05:30:58;18.50;99.90
37488;DHT22;23342;52.620;13.300;2022-07-03T05:33:23;18.60;99.90
37488;DHT22;23342;52.620;13.300;2022-07-03T05:35:49;18.70;99.90
37488;DHT22;23342;52.620;13.300;2022-07-03T05:38:14;18.80;99.90
37488;DHT22;23342;52.620;13.300;2022-07-03T05:41:57;19.00;99.90
37488;DHT22;23342;52.620;13.300;2022-07-03T05:44:22;19.10;99.90
37488;DHT22;23342;52.620;13.300;2022-07-03T05:46:48;19.20;99.90
37488;DHT22;23342;52.620;13.300;2022-07-03T05:49:13;19.40;99.90
37488;DHT22;23342;52.620;13.300;2022-07-03T05:51:39;19.50;99.90
37488;DHT22;23342;52.620;13.300;2022-07-03T05:54:04;19.60;99.90
37488;DHT22;23342;52.620;13.300;2022-07-03T05:56:30;19.70;99.90
37488;DHT22;23342;52.620;13.300;2022-07-03T05:58:55;19.70;99.90
37488;DHT22;23342;52.620;13.300;2022-07-03T06:01:20;19.90;99.90
37488;DHT22;23342;52.620;13.300;2022-07-03T06:03:49;20.00;99.90
37488;DHT22;23342;52.620;13.300;2022-07-03T06:06:14;20.10;99.90
37488;DHT22;23342;52.620;13.300;2022-07-03T06:08:40;20.20;99.90
37488;DHT22;23342;52.620;13.300;2022-07-03T06:11:05;20.30;99.90
37488;DHT22;23342;52.620;13.300;2022-07-03T06:13:31;20.40;99.90
37488;DHT22;23342;52.620;13.300;2022-07-03T06:15:56;20.50;99.90
37488;DHT22;23342;52.620;13.300;2022-07-03T06:18:22;20.60;99.90
37488;DHT22;23342;52.620;13.300;2022-07-03T06:20:47;20.60;99.90
37488;DHT22;23342;52.620;13.300;2022-07-03T06:23:13;20.70;99.90
37488;DHT22;23342;52.620;13.300;2022-07-03T06:25:38;20.80;99.90
37488;DHT22;23342;52.620;13.300;2022-07-03T06:28:04;20.90;99.90
37488;DHT22;23342;52.620;13.300;2022-07-03T06:30:29;20.90;99.90
37488;DHT22;23342;52.620;13.300;2022-07-03T06:32:55;21.00;99.90
37488;DHT22;23342;52.620;13.300;2022-07-03T06:35:20;21.10;99.90
37488;DHT22;23342;52.620;13.300;2022-07-03T06:37:46;21.20;99.90
37488;DHT22;23342;52.620;13.300;2022-07-03T06:40:11;21.40;99.90
37488;DHT22;23342;52.620;13.300;2022-07-03T06:42:37;21.40;99.90
37488;DHT22;23342;52.620;13.300;2022-07-03T06:45:03;21.50;99.90
37488;DHT22;23342;52.620;13.300;2022-07-03T06:47:29;21.60;99.90
37488;DHT22;23342;52.620;13.300;2022-07-03T06:49:54;21.70;99.90
37488;DHT22;23342;52.620;13.300;2022-07-03T06:52:19;21.70;99.90
37488;DHT22;23342;52.620;13.300;2022-07-03T06:54:45;21.90;99.90
37488;DHT22;23342;52.620;13.300;2022-07-03T06:57:11;21.90;99.90
37488;DHT22;23342;52.620;13.300;2022-07-03T06:59:37;22.00;99.90
37488;DHT22;23342;52.620;13.300;2022-07-03T07:02:03;22.10;99.90
37488;DHT22;23342;52.620;13.300;2022-07-03T07:04:29;22.10;99.90
37488;DHT22;23342;52.620;13.300;2022-07-03T07:06:54;22.20;99.90
37488;DHT22;23342;52.620;13.300;2022-07-03T07:09:19;22.20;99.90
37488;DHT22;23342;52.620;13.300;2022-07-03T07:11:45;22.30;99.90
37488;DHT22;23342;52.620;13.300;2022-07-03T07:14:10;22.40;99.90
37488;DHT22;23342;52.620;13.300;2022-07-03T07:16:36;22.40;99.90
37488;DHT22;23342;52.620;13.300;2022-07-03T07:19:01;22.50;99.90
37488;DHT22;23342;52.620;13.300;2022-07-03T07:21:27;22.60;99.90
37488;DHT22;23342;52.620;13.300;2022-07-03T07:23:52;22.70;99.90
37488;DHT22;23342;52.620;13.300;2022-07-03T07:26:18;22.80;99.90
37488;DHT22;23342;52.620;13.300;2022-07-03T07:28:46;22.90;99.90
37488;DHT22;23342;52.620;13.300;2022-07-03T07:31:12;23.00;99.90
37488;DHT22;23342;52.620;13.300;2022-07-03T07:33:37;23.00;99.90
37488;DHT22;23342;52.620;13.300;2022-07-03T07:36:03;23.10;99.90
37488;DHT22;23342;52.620;13.300;2022-07-03T07:38:28;23.20;99.90
37488;DHT22;23342;52.620;13.300;2022-07-03T07:40:54;23.20;99.90
37488;DHT22;23342;52.620;13.300;2022-07-03T07:43:19;23.20;99.90
37488;DHT22;23342;52.620;13.300;2022-07-03T07:45:45;23.30;99.90
37488;DHT22;23342;52.620;13.300;2022-07-03T07:48:10;23.40;99.90
37488;DHT22;23342;52.620;13.300;2022-07-03T07:50:36;23.50;99.90
37488;DHT22;23342;52.620;13.300;2022-07-03T07:53:02;23.60;99.90
37488;DHT22;23342;52.620;13.300;2022-07-03T07:55:28;23.70;99.90
37488;DHT22;23342;52.620;13.300;2022-07-03T07:57:53;23.80;99.90
37488;DHT22;23342;52.620;13.300;2022-07-03T08:00:20;23.90;99.90
37488;DHT22;23342;52.620;13.300;2022-07-03T08:02:47;24.00;99.90
37488;DHT22;23342;52.620;13.300;2022-07-03T08:05:31;24.10;99.90
37488;DHT22;23342;52.620;13.300;2022-07-03T08:08:13;24.10;99.90
37488;DHT22;23342;52.620;13.300;2022-07-03T08:10:48;24.20;99.90
37488;DHT22;23342;52.620;13.300;2022-07-03T08:13:16;24.30;99.90
37488;DHT22;23342;52.620;13.300;2022-07-03T08:15:42;24.40;99.90
37488;DHT22;23342;52.620;13.300;2022-07-03T08:18:08;24.40;99.90
37488;DHT22;23342;52.620;13.300;2022-07-03T08:20:35;24.50;99.90
37488;DHT22;23342;52.620;13.300;2022-07-03T08:23:01;24.60;99.90
37488;DHT22;23342;52.620;13.300;2022-07-03T08:25:27;24.60;99.90
37488;DHT22;23342;52.620;13.300;2022-07-03T08:27:53;24.60;99.90
37488;DHT22;23342;52.620;13.300;2022-07-03T08:30:19;24.70;99.90
37488;DHT22;23342;52.620;13.300;2022-07-03T08:32:45;24.80;99.90
37488;DHT22;23342;52.620;13.300;2022-07-03T08:35:11;24.90;99.90
37488;DHT22;23342;52.620;13.300;2022-07-03T08:37:38;24.90;99.90
37488;DHT22;23342;52.620;13.300;2022-07-03T08:40:07;25.10;99.90
37488;DHT22;23342;52.620;13.300;2022-07-03T08:42:35;25.10;99.90
37488;DHT22;23342;52.620;13.300;2022-07-03T08:45:04;25.30;99.90
37488;DHT22;23342;52.620;13.300;2022-07-03T08:47:32;25.30;99.90
37488;DHT22;23342;52.620;13.300;2022-07-03T08:49:58;25.40;99.90
37488;DHT22;23342;52.620;13.300;2022-07-03T08:52:26;25.40;99.90
37488;DHT22;23342;52.620;13.300;2022-07-03T08:54:52;25.50;99.90
37488;DHT22;23342;52.620;13.300;2022-07-03T08:57:18;25.60;99.90
37488;DHT22;23342;52.620;13.300;2022-07-03T08:59:49;25.60;99.90
37488;DHT22;23342;52.620;13.300;2022-07-03T09:02:16;25.80;99.90
37488;DHT22;23342;52.620;13.300;2022-07-03T09:04:42;25.90;99.90
37488;DHT22;23342;52.620;13.300;2022-07-03T09:07:09;26.10;99.90
37488;DHT22;23342;52.620;13.300;2022-07-03T09:09:36;26.20;99.90
37488;DHT22;23342;52.620;13.300;2022-07-03T09:12:04;26.30;99.90
37488;DHT22;23342;52.620;13.300;2022-07-03T09:14:30;26.50;99.90
37488;DHT22;23342;52.620;13.300;2022-07-03T09:16:56;26.50;99.90
37488;DHT22;23342;52.620;13.300;2022-07-03T09:19:44;26.60;99.90
37488;DHT22;23342;52.620;13.300;2022-07-03T09:22:26;26.70;99.90
37488;DHT22;23342;52.620;13.300;2022-07-03T09:25:12;26.80;99.90
37488;DHT22;23342;52.620;13.300;2022-07-03T09:27:50;26.90;99.90
37488;DHT22;23342;52.620;13.300;2022-07-03T09:30:16;27.10;99.90
37488;DHT22;23342;52.620;13.300;2022-07-03T09:32:46;27.20;99.90
37488;DHT22;23342;52.620;13.300;2022-07-03T09:35:15;27.30;99.90
37488;DHT22;23342;52.620;13.300;2022-07-03T09:37:48;27.40;99.90
37488;DHT22;23342;52.620;13.300;2022-07-03T09:40:13;27.50;99.90
37488;DHT22;23342;52.620;13.300;2022-07-03T09:42:39;27.50;99.90
37488;DHT22;23342;52.620;13.300;2022-07-03T09:45:05;27.60;99.90
37488;DHT22;23342;52.620;13.300;2022-07-03T09:47:31;27.70;99.90
37488;DHT22;23342;52.620;13.300;2022-07-03T09:50:01;27.90;99.90
37488;DHT22;23342;52.620;13.300;2022-07-03T09:52:36;27.90;99.90
37488;DHT22;23342;52.620;13.300;2022-07-03T09:55:16;28.00;99.90
37488;DHT22;23342;52.620;13.300;2022-07-03T09:57:58;28.00;99.90
37488;DHT22;23342;52.620;13.300;2022-07-03T10:00:29;28.20;99.90
37488;DHT22;23342;52.620;13.300;2022-07-03T10:03:06;28.30;99.90
37488;DHT22;23342;52.620;13.300;2022-07-03T10:05:38;28.40;99.90
37488;DHT22;23342;52.620;13.300;2022-07-03T10:08:06;28.50;99.90
37488;DHT22;23342;52.620;13.300;2022-07-03T10:10:34;28.40;99.90
37488;DHT22;23342;52.620;13.300;2022-07-03T10:13:01;28.50;99.90
37488;DHT22;23342;52.620;13.300;2022-07-03T10:15:29;28.40;99.90
37488;DHT22;23342;52.620;13.300;2022-07-03T10:17:57;28.50;99.90
37488;DHT22;23342;52.620;13.300;2022-07-03T10:20:45;28.70;99.90
37488;DHT22;23342;52.620;13.300;2022-07-03T10:23:11;28.80;99.90
37488;DHT22;23342;52.620;13.300;2022-07-03T10:25:40;29.00;99.90
37488;DHT22;23342;52.620;13.300;2022-07-03T10:28:06;29.10;99.90
37488;DHT22;23342;52.620;13.300;2022-07-03T10:30:32;29.10;99.90
37488;DHT22;23342;52.620;13.300;2022-07-03T10:32:59;29.10;99.90
37488;DHT22;23342;52.620;13.300;2022-07-03T10:35:28;29.20;99.20
37488;DHT22;23342;52.620;13.300;2022-07-03T10:38:36;29.30;99.90
37488;DHT22;23342;52.620;13.300;2022-07-03T10:41:20;29.40;99.60
37488;DHT22;23342;52.620;13.300;2022-07-03T10:44:07;29.50;99.80
37488;DHT22;23342;52.620;13.300;2022-07-03T10:46:51;29.70;99.20
37488;DHT22;23342;52.620;13.300;2022-07-03T10:49:17;29.90;99.30
37488;DHT22;23342;52.620;13.300;2022-07-03T10:51:57;30.00;98.60
37488;DHT22;23342;52.620;13.300;2022-07-03T10:54:31;30.00;98.20
37488;DHT22;23342;52.620;13.300;2022-07-03T10:57:09;30.00;98.00
37488;DHT22;23342;52.620;13.300;2022-07-03T10:59:58;30.00;98.30
37488;DHT22;23342;52.620;13.300;2022-07-03T11:02:38;29.90;98.50
37488;DHT22;23342;52.620;13.300;2022-07-03T11:05:14;30.00;98.30
37488;DHT22;23342;52.620;13.300;2022-07-03T11:09:00;30.20;97.80
37488;DHT22;23342;52.620;13.300;2022-07-03T11:11:43;30.30;97.10
37488;DHT22;23342;52.620;13.300;2022-07-03T11:14:23;30.40;97.30
37488;DHT22;23342;52.620;13.300;2022-07-03T11:16:49;30.40;96.80
37488;DHT22;23342;52.620;13.300;2022-07-03T11:19:41;30.50;96.80
37488;DHT22;23342;52.620;13.300;2022-07-03T11:22:12;30.50;97.00
37488;DHT22;23342;52.620;13.300;2022-07-03T11:24:44;30.50;96.20
37488;DHT22;23342;52.620;13.300;2022-07-03T11:27:24;30.60;96.20
37488;DHT22;23342;52.620;13.300;2022-07-03T11:29:52;30.70;96.50
37488;DHT22;23342;52.620;13.300;2022-07-03T11:32:50;30.80;95.60
37488;DHT22;23342;52.620;13.300;2022-07-03T11:39:55;30.50;96.10
37488;DHT22;23342;52.620;13.300;2022-07-03T11:42:22;30.80;96.00
37488;DHT22;23342;52.620;13.300;2022-07-03T11:44:47;30.90;95.90
37488;DHT22;23342;52.620;13.300;2022-07-03T11:47:14;31.00;94.80
37488;DHT22;23342;52.620;13.300;2022-07-03T11:49:47;31.00;95.40
37488;DHT22;23342;52.620;13.300;2022-07-03T11:52:13;31.10;94.90
37488;DHT22;23342;52.620;13.300;2022-07-03T11:54:51;31.20;94.40
37488;DHT22;23342;52.620;13.300;2022-07-03T11:57:17;31.20;93.70
37488;DHT22;23342;52.620;13.300;2022-07-03T11:59:43;31.10;93.30
37488;DHT22;23342;52.620;13.300;2022-07-03T12:02:08;31.10;94.30
37488;DHT22;23342;52.620;13.300;2022-07-03T12:04:34;31.10;94.20
37488;DHT22;23342;52.620;13.300;2022-07-03T12:07:00;31.30;94.20
37488;DHT22;23342;52.620;13.300;2022-07-03T12:09:31;31.30;93.30
37488;DHT22;23342;52.620;13.300;2022-07-03T12:12:04;31.30;93.40
37488;DHT22;23342;52.620;13.300;2022-07-03T12:14:50;31.20;93.40
37488;DHT22;23342;52.620;13.300;2022-07-03T12:17:18;31.20;94.30
37488;DHT22;23342;52.620;13.300;2022-07-03T12:19:49;31.30;93.20
37488;DHT22;23342;52.620;13.300;2022-07-03T12:22:35;31.30;92.90
37488;DHT22;23342;52.620;13.300;2022-07-03T12:25:05;30.70;93.30
37488;DHT22;23342;52.620;13.300;2022-07-03T12:27:32;30.50;94.70
37488;DHT22;23342;52.620;13.300;2022-07-03T12:29:59;30.60;94.60
37488;DHT22;23342;52.620;13.300;2022-07-03T12:32:24;30.50;93.90
37488;DHT22;23342;52.620;13.300;2022-07-03T12:34:50;30.30;94.00
37488;DHT22;23342;52.620;13.300;2022-07-03T12:37:16;30.30;95.00
37488;DHT22;23342;52.620;13.300;2022-07-03T12:39:48;30.50;94.60
37488;DHT22;23342;52.620;13.300;2022-07-03T12:42:15;30.70;94.00
37488;DHT22;23342;52.620;13.300;2022-07-03T12:44:41;30.80;93.80
37488;DHT22;23342;52.620;13.300;2022-07-03T12:47:07;30.70;93.60
37488;DHT22;23342;52.620;13.300;2022-07-03T12:49:32;30.70;93.40
37488;DHT22;23342;52.620;13.300;2022-07-03T12:51:58;30.70;93.30
37488;DHT22;23342;52.620;13.300;2022-07-03T12:54:34;30.90;94.00
37488;DHT22;23342;52.620;13.300;2022-07-03T12:57:08;31.10;93.40
37488;DHT22;23342;52.620;13.300;2022-07-03T13:00:13;31.20;92.30
37488;DHT22;23342;52.620;13.300;2022-07-03T13:02:43;31.30;91.70
37488;DHT22;23342;52.620;13.300;2022-07-03T13:05:18;31.30;92.10
37488;DHT22;23342;52.620;13.300;2022-07-03T13:07:47;31.20;92.10
37488;DHT22;23342;52.620;13.300;2022-07-03T13:10:18;31.20;92.40
37488;DHT22;23342;52.620;13.300;2022-07-03T13:12:55;31.20;92.40
37488;DHT22;23342;52.620;13.300;2022-07-03T13:15:25;31.30;91.90
37488;DHT22;23342;52.620;13.300;2022-07-03T13:17:59;31.30;92.30
37488;DHT22;23342;52.620;13.300;2022-07-03T13:20:30;31.40;92.90
37488;DHT22;23342;52.620;13.300;2022-07-03T13:22:59;31.50;91.60
37488;DHT22;23342;52.620;13.300;2022-07-03T13:25:26;31.50;91.50
37488;DHT22;23342;52.620;13.300;2022-07-03T13:27:52;31.50;91.50
37488;DHT22;23342;52.620;13.300;2022-07-03T13:30:27;31.50;91.30
37488;DHT22;23342;52.620;13.300;2022-07-03T13:32:53;31.60;92.80
37488;DHT22;23342;52.620;13.300;2022-07-03T13:35:18;31.70;91.70
37488;DHT22;23342;52.620;13.300;2022-07-03T13:37:44;31.70;91.90
37488;DHT22;23342;52.620;13.300;2022-07-03T13:40:09;31.60;90.10
37488;DHT22;23342;52.620;13.300;2022-07-03T13:42:35;31.40;90.30
37488;DHT22;23342;52.620;13.300;2022-07-03T13:45:00;31.10;90.50
37488;DHT22;23342;52.620;13.300;2022-07-03T13:47:25;30.80;90.70
37488;DHT22;23342;52.620;13.300;2022-07-03T13:49:51;30.50;91.30
37488;DHT22;23342;52.620;13.300;2022-07-03T13:52:17;30.40;92.00
37488;DHT22;23342;52.620;13.300;2022-07-03T13:54:43;30.50;92.50
37488;DHT22;23342;52.620;13.300;2022-07-03T13:57:08;30.40;92.10
37488;DHT22;23342;52.620;13.300;2022-07-03T13:59:34;30.40;91.80
37488;DHT22;23342;52.620;13.300;2022-07-03T14:02:00;30.30;92.20
37488;DHT22;23342;52.620;13.300;2022-07-03T14:04:26;30.20;92.30
37488;DHT22;23342;52.620;13.300;2022-07-03T14:06:52;30.40;92.60
37488;DHT22;23342;52.620;13.300;2022-07-03T14:09:18;30.60;91.80
37488;DHT22;23342;52.620;13.300;2022-07-03T14:11:43;30.80;91.60
37488;DHT22;23342;52.620;13.300;2022-07-03T14:14:09;30.90;91.90
37488;DHT22;23342;52.620;13.300;2022-07-03T14:16:35;31.00;91.40
37488;DHT22;23342;52.620;13.300;2022-07-03T14:19:00;31.00;91.40
37488;DHT22;23342;52.620;13.300;2022-07-03T14:21:29;31.10;91.10
37488;DHT22;23342;52.620;13.300;2022-07-03T14:23:54;31.00;91.30
37488;DHT22;23342;52.620;13.300;2022-07-03T14:26:20;31.10;91.50
37488;DHT22;23342;52.620;13.300;2022-07-03T14:34:54;31.20;91.10
37488;DHT22;23342;52.620;13.300;2022-07-03T14:37:19;30.70;92.10
37488;DHT22;23342;52.620;13.300;2022-07-03T14:39:49;30.70;90.80
37488;DHT22;23342;52.620;13.300;2022-07-03T14:42:16;30.80;90.20
37488;DHT22;23342;52.620;13.300;2022-07-03T14:44:42;30.90;90.90
37488;DHT22;23342;52.620;13.300;2022-07-03T14:47:08;31.10;91.00
37488;DHT22;23342;52.620;13.300;2022-07-03T14:49:33;31.20;91.60
37488;DHT22;23342;52.620;13.300;2022-07-03T14:52:01;31.20;91.30
37488;DHT22;23342;52.620;13.300;2022-07-03T14:54:27;31.00;90.90
37488;DHT22;23342;52.620;13.300;2022-07-03T14:56:54;31.00;90.80
37488;DHT22;23342;52.620;13.300;2022-07-03T15:02:19;31.00;90.80
37488;DHT22;23342;52.620;13.300;2022-07-03T15:08:04;30.90;91.40
37488;DHT22;23342;52.620;13.300;2022-07-03T15:10:35;30.80;91.00
37488;DHT22;23342;52.620;13.300;2022-07-03T15:13:03;30.80;90.80
37488;DHT22;23342;52.620;13.300;2022-07-03T15:15:30;30.70;91.00
37488;DHT22;23342;52.620;13.300;2022-07-03T15:17:57;30.70;91.10
37488;DHT22;23342;52.620;13.300;2022-07-03T15:20:32;30.60;91.60
37488;DHT22;23342;52.620;13.300;2022-07-03T15:23:00;30.60;91.40
37488;DHT22;23342;52.620;13.300;2022-07-03T15:25:29;30.60;90.80
37488;DHT22;23342;52.620;13.300;2022-07-03T15:27:54;30.50;90.90
37488;DHT22;23342;52.620;13.300;2022-07-03T15:32:45;30.50;90.30
37488;DHT22;23342;52.620;13.300;2022-07-03T15:35:11;30.30;90.30
37488;DHT22;23342;52.620;13.300;2022-07-03T15:38:12;30.20;90.80
37488;DHT22;23342;52.620;13.300;2022-07-03T15:40:47;30.10;90.80
37488;DHT22;23342;52.620;13.300;2022-07-03T15:43:52;30.10;91.00
37488;DHT22;23342;52.620;13.300;2022-07-03T15:46:48;30.10;91.10
37488;DHT22;23342;52.620;13.300;2022-07-03T15:49:30;30.10;91.60
37488;DHT22;23342;52.620;13.300;2022-07-03T15:52:16;30.10;90.60
37488;DHT22;23342;52.620;13.300;2022-07-03T15:54:55;30.10;97.20
37488;DHT22;23342;52.620;13.300;2022-07-03T15:58:45;30.00;90.50
37488;DHT22;23342;52.620;13.300;2022-07-03T16:01:15;29.90;95.20
37488;DHT22;23342;52.620;13.300;2022-07-03T16:04:07;29.70;93.40
37488;DHT22;23342;52.620;13.300;2022-07-03T16:06:41;29.60;91.30
37488;DHT22;23342;52.620;13.300;2022-07-03T16:09:08;29.50;92.20
37488;DHT22;23342;52.620;13.300;2022-07-03T16:11:37;29.40;93.40